sensor_id;sensor_type;location;lat;lon;timestamp;P1;durP1;ratioP1;P2;durP2;ratioP2
15454;SDS011;21057;51.024;7.540;2022-09-12T00:00:05;26.33;;;23.80;;
15454;SDS011;21057;51.024;7.540;2022-09-12T00:02:33;25.27;;;22.70;;
15454;SDS011;21057;51.024;7.540;2022-09-12T00:05:01;26.50;;;23.93;;
15454;SDS011;21057;51.024;7.540;2022-09-12T00:07:28;25.40;;;23.00;;
15454;SDS011;21057;51.024;7.540;2022-09-12T00:12:33;24.30;;;22.03;;
15454;SDS011;21057;51.024;7.540;2022-09-12T00:15:00;25.77;;;23.37;;
15454;SDS011;21057;51.024;7.540;2022-09-12T00:17:27;26.17;;;23.73;;
15454;SDS011;21057;51.024;7.540;2022-09-12T00:19:54;24.63;;;22.60;;
15454;SDS011;21057;51.024;7.540;2022-09-12T00:22:22;25.87;;;23.17;;
15454;SDS011;21057;51.024;7.540;2022-09-12T00:24:49;25.57;;;23.07;;
15454;SDS011;21057;51.024;7.540;2022-09-12T00:27:16;25.27;;;23.10;;
15454;SDS011;21057;51.024;7.540;2022-09-12T00:29:43;24.90;;;22.47;;
15454;SDS011;21057;51.024;7.540;2022-09-12T00:32:10;26.03;;;23.53;;
15454;SDS011;21057;51.024;7.540;2022-09-12T00:34:36;24.43;;;22.33;;
15454;SDS011;21057;51.024;7.540;2022-09-12T00:37:03;24.00;;;22.17;;
15454;SDS011;21057;51.024;7.540;2022-09-12T00:39:33;25.13;;;22.87;;
15454;SDS011;21057;51.024;7.540;2022-09-12T00:42:13;25.80;;;23.30;;
15454;SDS011;21057;51.024;7.540;2022-09-12T00:44:42;25.17;;;23.07;;
15454;SDS011;21057;51.024;7.540;2022-09-12T00:47:13;25.83;;;23.73;;
15454;SDS011;21057;51.024;7.540;2022-09-12T00:49:51;25.50;;;23.30;;
15454;SDS011;21057;51.024;7.540;2022-09-12T00:52:25;26.73;;;24.00;;
15454;SDS011;21057;51.024;7.540;2022-09-12T00:54:56;24.83;;;22.70;;
15454;SDS011;21057;51.024;7.540;2022-09-12T00:57:28;26.93;;;24.37;;
15454;SDS011;21057;51.024;7.540;2022-09-12T01:00:00;25.37;;;23.20;;
15454;SDS011;21057;51.024;7.540;2022-09-12T01:02:34;22.47;;;20.50;;
15454;SDS011;21057;51.024;7.540;2022-09-12T01:05:01;25.17;;;23.00;;
15454;SDS011;21057;51.024;7.540;2022-09-12T01:07:28;24.03;;;22.03;;
15454;SDS011;21057;51.024;7.540;2022-09-12T01:09:56;25.10;;;22.57;;
15454;SDS011;21057;51.024;7.540;2022-09-12T01:12:23;25.37;;;22.87;;
15454;SDS011;21057;51.024;7.540;2022-09-12T01:15:02;24.53;;;22.47;;
15454;SDS011;21057;51.024;7.540;2022-09-12T01:17:34;25.40;;;23.23;;
15454;SDS011;21057;51.024;7.540;2022-09-12T01:20:21;25.80;;;23.40;;
15454;SDS011;21057;51.024;7.540;2022-09-12T01:26:33;25.90;;;23.40;;
15454;SDS011;21057;51.024;7.540;2022-09-12T01:29:24;25.53;;;23.33;;
15454;SDS011;21057;51.024;7.540;2022-09-12T01:32:20;24.93;;;22.57;;
15454;SDS011;21057;51.024;7.540;2022-09-12T01:34:57;25.83;;;23.50;;
15454;SDS011;21057;51.024;7.540;2022-09-12T01:37:41;24.13;;;22.27;;
15454;SDS011;21057;51.024;7.540;2022-09-12T01:40:19;25.03;;;22.83;;
15454;SDS011;21057;51.024;7.540;2022-09-12T01:42:52;25.27;;;23.00;;
15454;SDS011;21057;51.024;7.540;2022-09-12T01:45:27;24.00;;;21.90;;
15454;SDS011;21057;51.024;7.540;2022-09-12T01:47:59;24.10;;;22.10;;
15454;SDS011;21057;51.024;7.540;2022-09-12T01:50:34;22.80;;;21.00;;
15454;SDS011;21057;51.024;7.540;2022-09-12T01:53:10;23.90;;;21.80;;
15454;SDS011;21057;51.024;7.540;2022-09-12T01:55:43;25.23;;;22.87;;
15454;SDS011;21057;51.024;7.540;2022-09-12T01:58:14;25.57;;;22.20;;
15454;SDS011;21057;51.024;7.540;2022-09-12T02:00:46;23.77;;;21.47;;
15454;SDS011;21057;51.024;7.540;2022-09-12T02:03:20;24.60;;;22.70;;
15454;SDS011;21057;51.024;7.540;2022-09-12T02:05:54;24.07;;;21.97;;
15454;SDS011;21057;51.024;7.540;2022-09-12T02:08:27;24.20;;;22.20;;
15454;SDS011;21057;51.024;7.540;2022-09-12T02:10:59;25.10;;;22.87;;
15454;SDS011;21057;51.024;7.540;2022-09-12T02:13:31;23.33;;;21.40;;
15454;SDS011;21057;51.024;7.540;2022-09-12T02:16:02;23.43;;;21.63;;
15454;SDS011;21057;51.024;7.540;2022-09-12T02:18:36;24.40;;;22.40;;
15454;SDS011;21057;51.024;7.540;2022-09-12T02:21:04;24.00;;;22.10;;
15454;SDS011;21057;51.024;7.540;2022-09-12T02:23:32;24.10;;;22.10;;
15454;SDS011;21057;51.024;7.540;2022-09-12T02:26:02;24.47;;;22.57;;
15454;SDS011;21057;51.024;7.540;2022-09-12T02:28:35;24.67;;;22.47;;
15454;SDS011;21057;51.024;7.540;2022-09-12T02:31:07;25.57;;;23.47;;
15454;SDS011;21057;51.024;7.540;2022-09-12T02:33:42;25.10;;;22.67;;
15454;SDS011;21057;51.024;7.540;2022-09-12T02:36:14;24.23;;;21.90;;
15454;SDS011;21057;51.024;7.540;2022-09-12T02:38:48;24.07;;;22.07;;
15454;SDS011;21057;51.024;7.540;2022-09-12T02:41:17;24.73;;;22.77;;
15454;SDS011;21057;51.024;7.540;2022-09-12T02:43:45;25.37;;;23.23;;
15454;SDS011;21057;51.024;7.540;2022-09-12T02:46:15;24.43;;;22.47;;
15454;SDS011;21057;51.024;7.540;2022-09-12T02:48:48;24.37;;;22.37;;
15454;SDS011;21057;51.024;7.540;2022-09-12T02:51:16;24.13;;;22.23;;
15454;SDS011;21057;51.024;7.540;2022-09-12T02:53:43;24.93;;;22.57;;
15454;SDS011;21057;51.024;7.540;2022-09-12T02:56:11;24.03;;;21.83;;
15454;SDS011;21057;51.024;7.540;2022-09-12T02:58:43;25.43;;;23.33;;
15454;SDS011;21057;51.024;7.540;2022-09-12T03:01:11;25.37;;;23.40;;
15454;SDS011;21057;51.024;7.540;2022-09-12T03:03:55;26.33;;;24.13;;
15454;SDS011;21057;51.024;7.540;2022-09-12T03:06:29;25.10;;;22.90;;
15454;SDS011;21057;51.024;7.540;2022-09-12T03:09:02;25.37;;;23.23;;
15454;SDS011;21057;51.024;7.540;2022-09-12T03:11:42;24.80;;;22.80;;
15454;SDS011;21057;51.024;7.540;2022-09-12T03:14:36;26.33;;;23.67;;
15454;SDS011;21057;51.024;7.540;2022-09-12T03:17:17;24.63;;;22.83;;
15454;SDS011;21057;51.024;7.540;2022-09-12T03:19:53;24.83;;;22.87;;
15454;SDS011;21057;51.024;7.540;2022-09-12T03:22:27;24.23;;;22.43;;
15454;SDS011;21057;51.024;7.540;2022-09-12T03:25:02;24.27;;;22.60;;
15454;SDS011;21057;51.024;7.540;2022-09-12T03:27:38;25.23;;;22.87;;
15454;SDS011;21057;51.024;7.540;2022-09-12T03:30:10;23.77;;;21.93;;
15454;SDS011;21057;51.024;7.540;2022-09-12T03:32:44;22.87;;;21.07;;
15454;SDS011;21057;51.024;7.540;2022-09-12T03:35:14;23.93;;;21.97;;
15454;SDS011;21057;51.024;7.540;2022-09-12T03:37:41;21.87;;;20.33;;
15454;SDS011;21057;51.024;7.540;2022-09-12T03:40:09;23.67;;;21.77;;
15454;SDS011;21057;51.024;7.540;2022-09-12T03:42:36;23.00;;;21.20;;
15454;SDS011;21057;51.024;7.540;2022-09-12T03:45:04;23.20;;;21.50;;
15454;SDS011;21057;51.024;7.540;2022-09-12T03:47:31;22.50;;;21.00;;
15454;SDS011;21057;51.024;7.540;2022-09-12T03:49:58;23.80;;;22.20;;
15454;SDS011;21057;51.024;7.540;2022-09-12T03:55:26;23.17;;;21.37;;
15454;SDS011;21057;51.024;7.540;2022-09-12T03:57:53;23.73;;;21.93;;
15454;SDS011;21057;51.024;7.540;2022-09-12T04:00:20;22.53;;;20.83;;
15454;SDS011;21057;51.024;7.540;2022-09-12T04:02:51;23.57;;;21.87;;
15454;SDS011;21057;51.024;7.540;2022-09-12T04:05:19;23.83;;;21.97;;
15454;SDS011;21057;51.024;7.540;2022-09-12T04:07:46;24.07;;;22.37;;
15454;SDS011;21057;51.024;7.540;2022-09-12T04:10:13;24.40;;;22.60;;
15454;SDS011;21057;51.024;7.540;2022-09-12T04:12:41;25.13;;;23.37;;
15454;SDS011;21057;51.024;7.540;2022-09-12T04:15:08;24.50;;;22.87;;
15454;SDS011;21057;51.024;7.540;2022-09-12T04:17:35;24.17;;;22.47;;
15454;SDS011;21057;51.024;7.540;2022-09-12T04:20:03;24.33;;;22.70;;
15454;SDS011;21057;51.024;7.540;2022-09-12T04:22:30;24.23;;;22.73;;
15454;SDS011;21057;51.024;7.540;2022-09-12T04:24:57;24.60;;;22.63;;
15454;SDS011;21057;51.024;7.540;2022-09-12T04:27:24;25.10;;;23.20;;
15454;SDS011;21057;51.024;7.540;2022-09-12T04:29:54;25.90;;;24.10;;
15454;SDS011;21057;51.024;7.540;2022-09-12T04:32:21;26.67;;;24.77;;
15454;SDS011;21057;51.024;7.540;2022-09-12T04:34:48;24.97;;;23.27;;
15454;SDS011;21057;51.024;7.540;2022-09-12T04:37:16;24.37;;;22.80;;
15454;SDS011;21057;51.024;7.540;2022-09-12T04:39:43;24.97;;;23.20;;
15454;SDS011;21057;51.024;7.540;2022-09-12T04:42:10;25.77;;;23.87;;
15454;SDS011;21057;51.024;7.540;2022-09-12T04:44:37;25.17;;;23.40;;
15454;SDS011;21057;51.024;7.540;2022-09-12T04:47:05;26.17;;;24.10;;
15454;SDS011;21057;51.024;7.540;2022-09-12T04:49:33;26.20;;;24.30;;
15454;SDS011;21057;51.024;7.540;2022-09-12T04:52:00;26.50;;;24.53;;
15454;SDS011;21057;51.024;7.540;2022-09-12T04:54:27;26.33;;;24.40;;
15454;SDS011;21057;51.024;7.540;2022-09-12T04:56:54;26.93;;;25.13;;
15454;SDS011;21057;51.024;7.540;2022-09-12T04:59:21;27.47;;;25.37;;
15454;SDS011;21057;51.024;7.540;2022-09-12T05:01:48;26.60;;;24.00;;
15454;SDS011;21057;51.024;7.540;2022-09-12T05:06:48;25.77;;;23.97;;
15454;SDS011;21057;51.024;7.540;2022-09-12T05:09:15;25.87;;;23.80;;
15454;SDS011;21057;51.024;7.540;2022-09-12T05:11:42;26.50;;;24.53;;
15454;SDS011;21057;51.024;7.540;2022-09-12T05:14:18;24.90;;;23.00;;
15454;SDS011;21057;51.024;7.540;2022-09-12T05:16:44;23.60;;;22.00;;
15454;SDS011;21057;51.024;7.540;2022-09-12T05:19:11;25.03;;;23.00;;
15454;SDS011;21057;51.024;7.540;2022-09-12T05:21:39;25.77;;;23.70;;
15454;SDS011;21057;51.024;7.540;2022-09-12T05:24:06;23.97;;;22.37;;
15454;SDS011;21057;51.024;7.540;2022-09-12T05:26:35;24.60;;;22.63;;
15454;SDS011;21057;51.024;7.540;2022-09-12T05:29:02;25.33;;;23.63;;
15454;SDS011;21057;51.024;7.540;2022-09-12T05:31:30;25.80;;;23.87;;
15454;SDS011;21057;51.024;7.540;2022-09-12T05:33:57;25.00;;;23.30;;
15454;SDS011;21057;51.024;7.540;2022-09-12T05:36:24;25.63;;;23.93;;
15454;SDS011;21057;51.024;7.540;2022-09-12T05:38:54;25.80;;;23.90;;
15454;SDS011;21057;51.024;7.540;2022-09-12T05:41:22;28.27;;;25.77;;
15454;SDS011;21057;51.024;7.540;2022-09-12T05:43:51;26.33;;;24.33;;
15454;SDS011;21057;51.024;7.540;2022-09-12T05:46:20;26.70;;;24.60;;
15454;SDS011;21057;51.024;7.540;2022-09-12T05:48:49;28.53;;;26.30;;
15454;SDS011;21057;51.024;7.540;2022-09-12T05:51:17;25.50;;;23.40;;
15454;SDS011;21057;51.024;7.540;2022-09-12T05:53:46;25.77;;;23.80;;
15454;SDS011;21057;51.024;7.540;2022-09-12T05:58:54;26.37;;;24.37;;
15454;SDS011;21057;51.024;7.540;2022-09-12T06:01:25;25.60;;;23.80;;
15454;SDS011;21057;51.024;7.540;2022-09-12T06:09:17;26.73;;;24.80;;
15454;SDS011;21057;51.024;7.540;2022-09-12T06:11:48;23.80;;;22.10;;
15454;SDS011;21057;51.024;7.540;2022-09-12T06:14:16;26.13;;;24.07;;
15454;SDS011;21057;51.024;7.540;2022-09-12T06:16:43;27.00;;;24.77;;
15454;SDS011;21057;51.024;7.540;2022-09-12T06:19:13;26.17;;;23.73;;
15454;SDS011;21057;51.024;7.540;2022-09-12T06:21:41;25.67;;;23.47;;
15454;SDS011;21057;51.024;7.540;2022-09-12T06:26:48;25.07;;;23.00;;
15454;SDS011;21057;51.024;7.540;2022-09-12T06:29:16;25.37;;;23.27;;
15454;SDS011;21057;51.024;7.540;2022-09-12T06:31:45;25.53;;;23.53;;
15454;SDS011;21057;51.024;7.540;2022-09-12T06:34:29;26.00;;;24.13;;
15454;SDS011;21057;51.024;7.540;2022-09-12T06:36:56;25.77;;;23.40;;
15454;SDS011;21057;51.024;7.540;2022-09-12T06:39:23;25.00;;;22.63;;
15454;SDS011;21057;51.024;7.540;2022-09-12T06:41:59;25.07;;;23.13;;
15454;SDS011;21057;51.024;7.540;2022-09-12T06:44:26;25.10;;;22.87;;
15454;SDS011;21057;51.024;7.540;2022-09-12T06:46:53;25.60;;;23.07;;
15454;SDS011;21057;51.024;7.540;2022-09-12T06:49:21;25.03;;;23.23;;
15454;SDS011;21057;51.024;7.540;2022-09-12T06:51:47;25.20;;;23.30;;
15454;SDS011;21057;51.024;7.540;2022-09-12T06:54:14;27.07;;;25.17;;
15454;SDS011;21057;51.024;7.540;2022-09-12T06:56:41;27.27;;;24.37;;
15454;SDS011;21057;51.024;7.540;2022-09-12T06:59:12;26.97;;;24.87;;
15454;SDS011;21057;51.024;7.540;2022-09-12T07:01:39;25.00;;;22.90;;
15454;SDS011;21057;51.024;7.540;2022-09-12T07:04:07;24.30;;;22.43;;
15454;SDS011;21057;51.024;7.540;2022-09-12T07:06:35;25.30;;;22.80;;
15454;SDS011;21057;51.024;7.540;2022-09-12T07:09:04;24.10;;;22.10;;
15454;SDS011;21057;51.024;7.540;2022-09-12T07:11:33;24.87;;;22.53;;
15454;SDS011;21057;51.024;7.540;2022-09-12T07:14:02;23.90;;;22.17;;
15454;SDS011;21057;51.024;7.540;2022-09-12T07:16:33;24.17;;;22.27;;
15454;SDS011;21057;51.024;7.540;2022-09-12T07:19:01;25.80;;;23.73;;
15454;SDS011;21057;51.024;7.540;2022-09-12T07:21:29;23.73;;;21.93;;
15454;SDS011;21057;51.024;7.540;2022-09-12T07:23:57;26.10;;;23.93;;
15454;SDS011;21057;51.024;7.540;2022-09-12T07:26:25;23.33;;;21.60;;
15454;SDS011;21057;51.024;7.540;2022-09-12T07:28:53;23.43;;;21.70;;
15454;SDS011;21057;51.024;7.540;2022-09-12T07:31:21;24.07;;;22.03;;
15454;SDS011;21057;51.024;7.540;2022-09-12T07:33:51;25.83;;;23.73;;
15454;SDS011;21057;51.024;7.540;2022-09-12T07:36:19;25.70;;;23.80;;
15454;SDS011;21057;51.024;7.540;2022-09-12T07:38:47;25.10;;;22.70;;
15454;SDS011;21057;51.024;7.540;2022-09-12T07:41:20;25.30;;;23.30;;
15454;SDS011;21057;51.024;7.540;2022-09-12T07:43:50;24.43;;;22.47;;
15454;SDS011;21057;51.024;7.540;2022-09-12T07:46:18;24.60;;;22.48;;
15454;SDS011;21057;51.024;7.540;2022-09-12T07:48:55;23.47;;;21.77;;
15454;SDS011;21057;51.024;7.540;2022-09-12T07:51:23;24.13;;;22.23;;
15454;SDS011;21057;51.024;7.540;2022-09-12T07:53:51;24.63;;;22.63;;
15454;SDS011;21057;51.024;7.540;2022-09-12T07:56:18;24.90;;;23.00;;
15454;SDS011;21057;51.024;7.540;2022-09-12T07:58:46;24.65;;;22.65;;
15454;SDS011;21057;51.024;7.540;2022-09-12T08:01:14;24.95;;;22.67;;
15454;SDS011;21057;51.024;7.540;2022-09-12T08:03:44;22.77;;;21.08;;
15454;SDS011;21057;51.024;7.540;2022-09-12T08:06:16;24.05;;;22.45;;
15454;SDS011;21057;51.024;7.540;2022-09-12T08:08:45;23.17;;;21.58;;
15454;SDS011;21057;51.024;7.540;2022-09-12T08:11:13;24.38;;;22.40;;
15454;SDS011;21057;51.024;7.540;2022-09-12T08:13:49;24.92;;;22.75;;
15454;SDS011;21057;51.024;7.540;2022-09-12T08:16:17;23.52;;;21.77;;
15454;SDS011;21057;51.024;7.540;2022-09-12T08:18:46;23.13;;;21.42;;
15454;SDS011;21057;51.024;7.540;2022-09-12T08:21:27;23.45;;;21.85;;
15454;SDS011;21057;51.024;7.540;2022-09-12T08:23:56;23.33;;;21.45;;
15454;SDS011;21057;51.024;7.540;2022-09-12T08:26:24;23.45;;;21.55;;
15454;SDS011;21057;51.024;7.540;2022-09-12T08:28:52;23.23;;;21.48;;
15454;SDS011;21057;51.024;7.540;2022-09-12T08:31:19;23.05;;;21.45;;
15454;SDS011;21057;51.024;7.540;2022-09-12T08:33:48;23.33;;;21.63;;
15454;SDS011;21057;51.024;7.540;2022-09-12T08:36:15;22.73;;;21.02;;
15454;SDS011;21057;51.024;7.540;2022-09-12T08:38:47;22.85;;;21.05;;
15454;SDS011;21057;51.024;7.540;2022-09-12T08:41:22;22.90;;;21.38;;
15454;SDS011;21057;51.024;7.540;2022-09-12T08:46:49;24.15;;;22.55;;
15454;SDS011;21057;51.024;7.540;2022-09-12T08:49:24;23.58;;;21.90;;
15454;SDS011;21057;51.024;7.540;2022-09-12T08:51:55;24.80;;;23.00;;
15454;SDS011;21057;51.024;7.540;2022-09-12T08:54:26;23.25;;;21.55;;
15454;SDS011;21057;51.024;7.540;2022-09-12T08:56:56;23.20;;;21.52;;
15454;SDS011;21057;51.024;7.540;2022-09-12T08:59:27;24.83;;;22.83;;
15454;SDS011;21057;51.024;7.540;2022-09-12T09:02:03;23.88;;;21.98;;
15454;SDS011;21057;51.024;7.540;2022-09-12T09:04:42;23.65;;;21.95;;
15454;SDS011;21057;51.024;7.540;2022-09-12T09:07:32;24.05;;;22.25;;
15454;SDS011;21057;51.024;7.540;2022-09-12T09:10:15;24.17;;;22.38;;
15454;SDS011;21057;51.024;7.540;2022-09-12T09:12:53;23.77;;;22.00;;
15454;SDS011;21057;51.024;7.540;2022-09-12T09:15:30;23.67;;;21.88;;
15454;SDS011;21057;51.024;7.540;2022-09-12T09:18:07;24.27;;;22.52;;
15454;SDS011;21057;51.024;7.540;2022-09-12T09:20:41;23.77;;;22.08;;
15454;SDS011;21057;51.024;7.540;2022-09-12T09:23:13;23.50;;;21.70;;
15454;SDS011;21057;51.024;7.540;2022-09-12T09:25:49;23.52;;;21.73;;
15454;SDS011;21057;51.024;7.540;2022-09-12T09:28:22;23.80;;;22.10;;
15454;SDS011;21057;51.024;7.540;2022-09-12T09:30:56;23.92;;;21.73;;
15454;SDS011;21057;51.024;7.540;2022-09-12T09:33:25;23.80;;;21.90;;
15454;SDS011;21057;51.024;7.540;2022-09-12T09:35:55;23.88;;;22.08;;
15454;SDS011;21057;51.024;7.540;2022-09-12T09:38:33;22.35;;;20.65;;
15454;SDS011;21057;51.024;7.540;2022-09-12T09:41:16;23.55;;;21.73;;
15454;SDS011;21057;51.024;7.540;2022-09-12T09:44:03;23.58;;;21.85;;
15454;SDS011;21057;51.024;7.540;2022-09-12T09:46:30;23.48;;;21.63;;
15454;SDS011;21057;51.024;7.540;2022-09-12T09:48:58;23.45;;;21.60;;
15454;SDS011;21057;51.024;7.540;2022-09-12T09:51:31;22.90;;;21.13;;
15454;SDS011;21057;51.024;7.540;2022-09-12T09:54:02;22.60;;;21.08;;
15454;SDS011;21057;51.024;7.540;2022-09-12T09:56:38;22.75;;;21.05;;
15454;SDS011;21057;51.024;7.540;2022-09-12T09:59:09;22.73;;;21.17;;
15454;SDS011;21057;51.024;7.540;2022-09-12T10:01:48;22.90;;;21.13;;
15454;SDS011;21057;51.024;7.540;2022-09-12T10:04:20;20.73;;;19.33;;
15454;SDS011;21057;51.024;7.540;2022-09-12T10:07:02;22.15;;;20.30;;
15454;SDS011;21057;51.024;7.540;2022-09-12T10:09:30;22.48;;;20.67;;
15454;SDS011;21057;51.024;7.540;2022-09-12T10:12:18;22.13;;;20.52;;
15454;SDS011;21057;51.024;7.540;2022-09-12T10:14:55;21.30;;;19.80;;
15454;SDS011;21057;51.024;7.540;2022-09-12T10:17:24;22.10;;;20.63;;
15454;SDS011;21057;51.024;7.540;2022-09-12T10:19:54;21.77;;;20.38;;
15454;SDS011;21057;51.024;7.540;2022-09-12T10:22:23;22.10;;;20.40;;
15454;SDS011;21057;51.024;7.540;2022-09-12T10:24:54;23.17;;;21.38;;
15454;SDS011;21057;51.024;7.540;2022-09-12T10:27:25;22.27;;;20.38;;
15454;SDS011;21057;51.024;7.540;2022-09-12T10:29:59;22.15;;;20.65;;
15454;SDS011;21057;51.024;7.540;2022-09-12T10:32:33;22.45;;;20.92;;
15454;SDS011;21057;51.024;7.540;2022-09-12T10:35:03;22.13;;;20.67;;
15454;SDS011;21057;51.024;7.540;2022-09-12T10:37:33;21.95;;;20.17;;
15454;SDS011;21057;51.024;7.540;2022-09-12T10:42:48;20.83;;;19.45;;
15454;SDS011;21057;51.024;7.540;2022-09-12T10:45:21;21.55;;;19.90;;
15454;SDS011;21057;51.024;7.540;2022-09-12T10:47:51;20.52;;;19.23;;
15454;SDS011;21057;51.024;7.540;2022-09-12T10:50:20;21.52;;;20.10;;
15454;SDS011;21057;51.024;7.540;2022-09-12T10:55:50;19.80;;;18.60;;
15454;SDS011;21057;51.024;7.540;2022-09-12T11:01:28;19.88;;;18.65;;
15454;SDS011;21057;51.024;7.540;2022-09-12T11:04:10;20.65;;;19.15;;
15454;SDS011;21057;51.024;7.540;2022-09-12T11:06:47;21.05;;;19.63;;
15454;SDS011;21057;51.024;7.540;2022-09-12T11:09:24;21.38;;;19.83;;
15454;SDS011;21057;51.024;7.540;2022-09-12T11:12:02;21.38;;;19.98;;
15454;SDS011;21057;51.024;7.540;2022-09-12T11:14:42;21.40;;;19.92;;
15454;SDS011;21057;51.024;7.540;2022-09-12T11:17:19;21.70;;;20.00;;
15454;SDS011;21057;51.024;7.540;2022-09-12T11:20:16;21.60;;;20.13;;
15454;SDS011;21057;51.024;7.540;2022-09-12T11:23:00;21.20;;;19.70;;
15454;SDS011;21057;51.024;7.540;2022-09-12T11:25:49;21.58;;;20.20;;
15454;SDS011;21057;51.024;7.540;2022-09-12T11:28:27;21.08;;;19.65;;
15454;SDS011;21057;51.024;7.540;2022-09-12T11:31:06;21.77;;;20.38;;
15454;SDS011;21057;51.024;7.540;2022-09-12T11:33:55;21.88;;;20.50;;
15454;SDS011;21057;51.024;7.540;2022-09-12T11:36:27;21.70;;;20.30;;
15454;SDS011;21057;51.024;7.540;2022-09-12T11:39:04;21.30;;;19.80;;
15454;SDS011;21057;51.024;7.540;2022-09-12T11:41:38;20.65;;;19.45;;
15454;SDS011;21057;51.024;7.540;2022-09-12T11:44:09;20.85;;;19.48;;
15454;SDS011;21057;51.024;7.540;2022-09-12T11:46:43;19.92;;;18.63;;
15454;SDS011;21057;51.024;7.540;2022-09-12T11:49:16;21.15;;;19.55;;
15454;SDS011;21057;51.024;7.540;2022-09-12T11:52:02;20.52;;;19.23;;
15454;SDS011;21057;51.024;7.540;2022-09-12T11:54:37;21.52;;;19.92;;
15454;SDS011;21057;51.024;7.540;2022-09-12T11:57:10;21.73;;;20.23;;
15454;SDS011;21057;51.024;7.540;2022-09-12T11:59:44;21.05;;;19.75;;
15454;SDS011;21057;51.024;7.540;2022-09-12T12:02:18;20.52;;;19.33;;
15454;SDS011;21057;51.024;7.540;2022-09-12T12:04:55;21.15;;;19.80;;
15454;SDS011;21057;51.024;7.540;2022-09-12T12:07:33;20.30;;;19.10;;
15454;SDS011;21057;51.024;7.540;2022-09-12T12:10:06;20.55;;;19.25;;
15454;SDS011;21057;51.024;7.540;2022-09-12T12:12:58;20.52;;;19.33;;
15454;SDS011;21057;51.024;7.540;2022-09-12T12:15:27;20.40;;;19.10;;
15454;SDS011;21057;51.024;7.540;2022-09-12T12:18:00;20.55;;;19.25;;
15454;SDS011;21057;51.024;7.540;2022-09-12T12:20:31;20.02;;;18.83;;
15454;SDS011;21057;51.024;7.540;2022-09-12T12:22:58;19.35;;;18.25;;
15454;SDS011;21057;51.024;7.540;2022-09-12T12:25:37;18.88;;;17.67;;
15454;SDS011;21057;51.024;7.540;2022-09-12T12:28:05;20.20;;;18.90;;
15454;SDS011;21057;51.024;7.540;2022-09-12T12:36:32;19.10;;;17.90;;
15454;SDS011;21057;51.024;7.540;2022-09-12T12:48:45;20.05;;;18.85;;
15454;SDS011;21057;51.024;7.540;2022-09-12T12:51:33;19.40;;;18.20;;
15454;SDS011;21057;51.024;7.540;2022-09-12T12:54:04;19.33;;;18.13;;
15454;SDS011;21057;51.024;7.540;2022-09-12T12:56:59;19.48;;;18.38;;
15454;SDS011;21057;51.024;7.540;2022-09-12T12:59:31;19.45;;;18.33;;
15454;SDS011;21057;51.024;7.540;2022-09-12T13:02:00;19.20;;;18.10;;
15454;SDS011;21057;51.024;7.540;2022-09-12T13:04:31;19.25;;;17.95;;
15454;SDS011;21057;51.024;7.540;2022-09-12T13:07:12;19.65;;;18.45;;
15454;SDS011;21057;51.024;7.540;2022-09-12T13:09:51;18.63;;;17.52;;
15454;SDS011;21057;51.024;7.540;2022-09-12T13:12:21;19.45;;;18.13;;
15454;SDS011;21057;51.024;7.540;2022-09-12T13:14:54;20.30;;;19.00;;
15454;SDS011;21057;51.024;7.540;2022-09-12T13:17:27;19.35;;;18.05;;
15454;SDS011;21057;51.024;7.540;2022-09-12T13:20:13;19.75;;;18.55;;
15454;SDS011;21057;51.024;7.540;2022-09-12T13:22:44;19.33;;;18.05;;
15454;SDS011;21057;51.024;7.540;2022-09-12T13:25:17;18.48;;;17.38;;
15454;SDS011;21057;51.024;7.540;2022-09-12T13:27:59;18.80;;;17.60;;
15454;SDS011;21057;51.024;7.540;2022-09-12T13:30:29;19.33;;;18.02;;
15454;SDS011;21057;51.024;7.540;2022-09-12T13:33:01;18.42;;;17.33;;
15454;SDS011;21057;51.024;7.540;2022-09-12T13:35:38;18.25;;;17.15;;
15454;SDS011;21057;51.024;7.540;2022-09-12T13:38:14;18.23;;;17.13;;
15454;SDS011;21057;51.024;7.540;2022-09-12T13:40:56;18.52;;;17.33;;
15454;SDS011;21057;51.024;7.540;2022-09-12T13:43:40;18.80;;;17.60;;
15454;SDS011;21057;51.024;7.540;2022-09-12T13:46:08;18.80;;;17.60;;
15454;SDS011;21057;51.024;7.540;2022-09-12T13:48:40;19.13;;;17.90;;
15454;SDS011;21057;51.024;7.540;2022-09-12T13:51:17;19.08;;;17.75;;
15454;SDS011;21057;51.024;7.540;2022-09-12T13:53:49;19.00;;;17.88;;
15454;SDS011;21057;51.024;7.540;2022-09-12T13:56:17;19.02;;;17.92;;
15454;SDS011;21057;51.024;7.540;2022-09-12T13:58:52;19.42;;;18.23;;
15454;SDS011;21057;51.024;7.540;2022-09-12T14:01:22;19.63;;;18.42;;
15454;SDS011;21057;51.024;7.540;2022-09-12T14:03:50;19.10;;;17.98;;
15454;SDS011;21057;51.024;7.540;2022-09-12T14:06:41;18.42;;;17.33;;
15454;SDS011;21057;51.024;7.540;2022-09-12T14:09:11;18.05;;;16.95;;
15454;SDS011;21057;51.024;7.540;2022-09-12T14:11:39;18.40;;;17.20;;
15454;SDS011;21057;51.024;7.540;2022-09-12T14:14:15;19.20;;;17.83;;
15454;SDS011;21057;51.024;7.540;2022-09-12T14:16:46;18.13;;;17.02;;
15454;SDS011;21057;51.024;7.540;2022-09-12T14:19:14;18.95;;;17.73;;
15454;SDS011;21057;51.024;7.540;2022-09-12T14:21:44;18.80;;;17.67;;
15454;SDS011;21057;51.024;7.540;2022-09-12T14:24:11;18.65;;;17.35;;
15454;SDS011;21057;51.024;7.540;2022-09-12T14:26:41;18.10;;;17.00;;
15454;SDS011;21057;51.024;7.540;2022-09-12T14:29:11;19.45;;;18.25;;
15454;SDS011;21057;51.024;7.540;2022-09-12T14:31:41;18.48;;;17.38;;
15454;SDS011;21057;51.024;7.540;2022-09-12T14:34:10;18.88;;;17.42;;
15454;SDS011;21057;51.024;7.540;2022-09-12T14:36:41;18.88;;;17.67;;
15454;SDS011;21057;51.024;7.540;2022-09-12T14:39:19;18.40;;;17.30;;
15454;SDS011;21057;51.024;7.540;2022-09-12T14:41:49;18.40;;;17.30;;
15454;SDS011;21057;51.024;7.540;2022-09-12T14:44:25;18.50;;;17.40;;
15454;SDS011;21057;51.024;7.540;2022-09-12T14:46:54;18.80;;;17.55;;
15454;SDS011;21057;51.024;7.540;2022-09-12T14:49:26;18.23;;;17.13;;
15454;SDS011;21057;51.024;7.540;2022-09-12T14:51:59;18.88;;;17.77;;
15454;SDS011;21057;51.024;7.540;2022-09-12T14:54:34;17.90;;;16.80;;
15454;SDS011;21057;51.024;7.540;2022-09-12T14:57:27;18.50;;;17.38;;
15454;SDS011;21057;51.024;7.540;2022-09-12T15:00:14;18.33;;;17.13;;
15454;SDS011;21057;51.024;7.540;2022-09-12T15:02:46;17.67;;;16.58;;
15454;SDS011;21057;51.024;7.540;2022-09-12T15:05:15;18.20;;;17.00;;
15454;SDS011;21057;51.024;7.540;2022-09-12T15:07:50;18.40;;;17.20;;
15454;SDS011;21057;51.024;7.540;2022-09-12T15:10:27;18.35;;;17.25;;
15454;SDS011;21057;51.024;7.540;2022-09-12T15:13:13;18.42;;;17.33;;
15454;SDS011;21057;51.024;7.540;2022-09-12T15:15:43;17.90;;;16.80;;
15454;SDS011;21057;51.024;7.540;2022-09-12T15:18:12;18.23;;;17.13;;
15454;SDS011;21057;51.024;7.540;2022-09-12T15:20:40;18.15;;;16.80;;
15454;SDS011;21057;51.024;7.540;2022-09-12T15:23:11;18.30;;;17.20;;
15454;SDS011;21057;51.024;7.540;2022-09-12T15:25:42;18.00;;;16.90;;
15454;SDS011;21057;51.024;7.540;2022-09-12T15:28:12;17.70;;;16.70;;
15454;SDS011;21057;51.024;7.540;2022-09-12T15:30:42;17.73;;;16.63;;
15454;SDS011;21057;51.024;7.540;2022-09-12T15:33:09;18.48;;;17.27;;
15454;SDS011;21057;51.024;7.540;2022-09-12T15:35:36;18.38;;;17.27;;
15454;SDS011;21057;51.024;7.540;2022-09-12T15:38:03;18.00;;;16.90;;